Time;durP1;ratioP1;P1;durP2;ratioP2;P2;SDS_P1;SDS_P2;PMS_P1;PMS_P2;Temp;Humidity;BMP_temperature;BMP_pressure;BME280_temperature;BME280_humidity;BME280_pressure;Samples;Min_cycle;Max_cycle;Signal;HPM_P1;HPM_P2
2022/02/07 00:00:04;;;;;;;7.70;3.06;;;0.60;99.90;;;0.62;78.58;96493.34;173216;28;1211;-77
2022/02/07 00:00:22;;;;;;;6.06;2.89;;;0.70;99.90;;;0.69;78.65;96499.72;173213;28;1232;-76
2022/02/07 00:00:40;;;;;;;5.85;2.88;;;0.70;99.90;;;0.72;78.89;96495.97;172275;28;1345;-77
2022/02/07 00:00:55;;;;;;;7.43;2.86;;;0.80;99.90;;;0.65;78.84;96466.59;171647;28;1205;-77
2022/02/07 00:01:30;;;;;;;5.91;2.45;;;0.90;99.90;;;0.75;78.48;96475.28;173163;28;1196;-77
2022/02/07 00:01:45;;;;;;;4.90;2.53;;;0.90;99.90;;;0.75;78.39;96480.59;173093;28;1204;-76
2022/02/07 00:02:00;;;;;;;5.20;2.61;;;0.90;99.90;;;0.77;78.37;96483.94;173243;28;1558;-77
2022/02/07 00:02:08;;;;;;;7.24;2.84;;;0.90;99.90;;;0.75;78.34;96483.25;172705;28;1487;-77
2022/02/07 00:02:15;;;;;;;9.59;3.17;;;0.90;99.90;;;0.78;78.22;96482.09;172395;28;1180;-77
2022/02/07 00:02:23;;;;;;;10.10;3.10;;;0.90;99.90;;;0.81;78.36;96487.09;171589;28;1292;-77
2022/02/07 00:02:50;;;;;;;10.03;2.97;;;0.90;99.90;;;0.78;78.36;96484.75;171908;28;886;-77
2022/02/07 00:03:15;;;;;;;9.29;2.79;;;0.90;99.90;;;0.64;78.58;96466.72;171776;28;1202;-77
2022/02/07 00:03:34;;;;;;;7.65;2.70;;;0.90;99.90;;;0.62;78.75;96453.63;173820;28;1368;-77
2022/02/07 00:03:55;;;;;;;5.90;2.95;;;0.90;99.90;;;0.70;78.36;96459.03;172527;28;788;-77
2022/02/07 00:04:03;;;;;;;6.43;3.15;;;0.90;99.90;;;0.65;78.18;96457.81;173105;28;1362;-77
2022/02/07 00:04:11;;;;;;;8.43;3.04;;;0.80;99.90;;;0.71;78.58;96468.63;173898;28;1007;-77
2022/02/07 00:04:23;;;;;;;8.28;2.98;;;0.90;99.90;;;0.71;78.06;96468.63;172236;28;1339;-77
2022/02/07 00:04:34;;;;;;;8.03;2.80;;;0.90;99.90;;;0.66;78.58;96462.13;174154;28;1358;-77
2022/02/07 00:04:41;;;;;;;5.46;2.66;;;0.90;99.90;;;0.65;78.43;96458.66;173125;28;2907;-77
2022/02/07 00:04:47;;;;;;;6.52;3.00;;;0.80;99.90;;;0.69;77.97;96473.25;173141;28;1001;-77
2022/02/07 00:04:55;;;;;;;6.47;3.07;;;0.80;99.90;;;0.66;78.23;96462.97;172348;28;1423;-76
2022/02/07 00:05:01;;;;;;;8.17;3.17;;;0.80;99.90;;;0.68;78.41;96465.44;173079;28;991;-77
2022/02/07 00:05:07;;;;;;;8.80;3.25;;;0.80;99.90;;;0.40;78.05;96422.31;173745;28;1039;-77
2022/02/07 00:05:13;;;;;;;8.25;3.05;;;0.80;99.90;;;0.47;78.25;96439.25;172866;28;1409;-77
2022/02/07 00:05:24;;;;;;;8.02;2.90;;;0.80;99.90;;;0.72;78.11;96470.31;172270;28;1305;-77
2022/02/07 00:05:31;;;;;;;7.47;2.98;;;0.80;99.90;;;0.69;77.89;96464.47;173100;28;1452;-77
2022/02/07 00:05:37;;;;;;;6.47;2.90;;;0.80;99.90;;;0.55;78.23;96435.88;172964;28;899;-77
2022/02/07 00:05:44;;;;;;;6.75;2.95;;;0.80;99.90;;;0.64;78.01;96470.22;172486;28;1438;-77
2022/02/07 00:05:50;;;;;;;6.16;2.94;;;0.80;99.90;;;0.62;78.10;96458.94;172374;28;1481;-77
2022/02/07 00:05:56;;;;;;;6.07;2.85;;;0.70;99.90;;;0.51;78.12;96440.66;173019;28;1243;-77
2022/02/07 00:06:03;;;;;;;6.85;2.95;;;0.70;99.90;;;0.67;78.44;96463.81;172262;28;1402;-77
2022/02/07 00:06:13;;;;;;;6.64;2.80;;;0.70;99.90;;;0.70;78.27;96468.78;172616;28;1596;-77
2022/02/07 00:06:19;;;;;;;6.14;2.64;;;0.70;99.90;;;0.60;78.46;96455.63;171348;28;1605;-77
2022/02/07 00:06:25;;;;;;;6.43;2.85;;;0.80;99.90;;;0.64;78.95;96461.44;172761;28;1305;-77
2022/02/07 00:06:31;;;;;;;7.03;2.80;;;0.80;99.90;;;0.67;78.77;96467.28;172265;28;1480;-77
2022/02/07 00:06:37;;;;;;;6.97;2.83;;;0.80;99.90;;;0.61;78.67;96457.28;171782;28;1296;-77
2022/02/07 00:06:44;;;;;;;7.03;2.92;;;0.70;99.90;;;0.64;78.91;96467.56;172365;28;1349;-77
2022/02/07 00:06:50;;;;;;;8.16;3.22;;;0.70;99.90;;;0.59;78.69;96450.47;173721;28;1477;-77
2022/02/07 00:06:56;;;;;;;7.68;3.00;;;0.80;99.90;;;0.58;79.01;96452.28;173467;28;1307;-77
2022/02/07 00:07:05;;;;;;;6.50;2.95;;;0.70;99.90;;;0.67;78.85;96472.59;173810;28;1381;-77
2022/02/07 00:07:16;;;;;;;7.17;3.17;;;0.80;99.90;;;0.62;78.71;96456.28;173298;28;1401;-77
2022/02/07 00:07:22;;;;;;;7.23;3.12;;;0.70;99.90;;;0.64;78.40;96459.63;173165;28;1267;-77
2022/02/07 00:07:28;;;;;;;7.97;3.40;;;0.80;99.90;;;0.69;78.66;96465.31;173874;28;939;-77
2022/02/07 00:07:34;;;;;;;8.30;3.45;;;0.70;99.90;;;0.61;78.55;96461.75;174210;28;1382;-77
2022/02/07 00:07:40;;;;;;;7.80;3.47;;;0.70;99.90;;;0.59;78.87;96456.59;172461;28;1272;-77
2022/02/07 00:07:46;;;;;;;7.40;3.38;;;0.70;99.90;;;0.34;78.61;96429.06;173703;28;1236;-77
2022/02/07 00:07:53;;;;;;;6.10;3.20;;;0.70;99.90;;;0.43;78.99;96448.50;173593;28;1414;-76
2022/02/07 00:07:59;;;;;;;5.68;3.07;;;0.70;99.90;;;0.41;78.96;96450.47;172345;28;1413;-77
2022/02/07 00:08:07;;;;;;;6.03;3.13;;;0.60;99.90;;;0.42;78.58;96457.41;173175;28;1489;-76
2022/02/07 00:08:14;;;;;;;6.38;3.08;;;0.60;99.90;;;0.42;79.11;96460.06;173587;28;1401;-77
2022/02/07 00:08:20;;;;;;;7.57;3.17;;;0.60;99.90;;;0.25;78.92;96442.34;172997;28;1424;-77
2022/02/07 00:08:26;;;;;;;7.78;3.15;;;0.50;99.90;;;0.35;78.94;96459.84;173722;28;1438;-77
2022/02/07 00:08:34;;;;;;;7.93;3.00;;;0.60;99.90;;;0.36;79.16;96464.13;173104;28;1216;-76
2022/02/07 00:08:42;;;;;;;8.50;2.93;;;0.50;99.90;;;0.34;79.15;96457.34;172491;28;1546;-77
2022/02/07 00:08:47;;;;;;;8.00;2.93;;;0.50;99.90;;;0.33;79.13;96455.66;171946;28;872;-77
2022/02/07 00:08:53;;;;;;;7.72;2.80;;;0.50;99.90;;;0.41;79.31;96467.16;172266;28;1208;-77
2022/02/07 00:08:59;;;;;;;7.47;2.85;;;0.50;99.90;;;0.38;79.39;96459.53;172239;28;1003;-77
2022/02/07 00:09:05;;;;;;;7.07;2.88;;;0.50;99.90;;;0.05;79.41;96401.13;173089;28;880;-76
2022/02/07 00:09:11;;;;;;;6.70;2.83;;;0.50;99.90;;;0.39;79.35;96452.41;172389;28;1372;-77
2022/02/07 00:09:18;;;;;;;6.20;2.72;;;0.50;99.90;;;0.30;79.75;96448.03;173127;28;1349;-77
2022/02/07 00:09:24;;;;;;;7.50;3.00;;;0.50;99.90;;;0.39;79.48;96460.34;172304;28;1562;-77
2022/02/07 00:09:30;;;;;;;7.40;2.88;;;0.50;99.90;;;0.36;79.38;96452.72;173649;28;1184;-77
2022/02/07 00:09:36;;;;;;;6.63;2.70;;;0.50;99.90;;;0.24;79.24;96428.28;173834;28;970;-77
2022/02/07 00:09:42;;;;;;;5.97;2.65;;;0.50;99.90;;;0.33;79.75;96440.63;172431;28;1212;-77
2022/02/07 00:09:48;;;;;;;5.80;2.75;;;0.50;99.90;;;0.27;79.50;96433.28;172745;28;1368;-77
2022/02/07 00:09:54;;;;;;;4.20;2.60;;;0.50;99.90;;;0.40;79.70;96459.38;173847;28;898;-77
2022/02/07 00:09:59;;;;;;;3.75;2.60;;;0.50;99.90;;;0.34;79.87;96444.09;173565;28;1963;-77
2022/02/07 00:10:07;;;;;;;3.93;2.60;;;0.50;99.90;;;0.30;79.58;96437.44;173831;28;1214;-77
2022/02/07 00:10:13;;;;;;;4.60;2.75;;;0.50;99.90;;;0.29;79.64;96439.25;172165;28;1466;-77
2022/02/07 00:10:20;;;;;;;4.97;2.75;;;0.50;99.90;;;0.43;79.91;96454.63;173784;28;1338;-77
2022/02/07 00:10:26;;;;;;;5.03;2.80;;;0.50;99.90;;;0.26;79.74;96428.16;173128;28;1126;-77
2022/02/07 00:10:34;;;;;;;4.94;2.70;;;0.50;99.90;;;0.33;79.94;96445.06;173513;28;1439;-77
2022/02/07 00:10:41;;;;;;;6.48;2.70;;;0.50;99.90;;;0.43;79.98;96457.25;172437;28;1438;-77
2022/02/07 00:10:47;;;;;;;6.74;2.76;;;0.50;99.90;;;0.17;79.78;96407.84;172020;28;1382;-77
2022/02/07 00:10:53;;;;;;;6.82;2.88;;;0.50;99.90;;;0.43;79.53;96456.44;172238;28;1048;-78
2022/02/07 00:10:59;;;;;;;6.72;2.92;;;0.50;99.90;;;0.39;79.41;96447.97;171871;28;963;-77
2022/02/07 00:11:05;;;;;;;7.30;3.13;;;0.50;99.90;;;0.41;79.49;96451.28;171769;28;1094;-77
2022/02/07 00:11:15;;;;;;;5.97;3.15;;;0.50;99.90;;;0.12;79.42;96403.00;173067;28;1220;-77
2022/02/07 00:11:21;;;;;;;6.57;2.94;;;0.50;99.90;;;0.07;79.33;96396.50;172270;28;1130;-77
2022/02/07 00:11:27;;;;;;;7.03;2.88;;;0.50;99.90;;;0.39;79.07;96444.47;171677;28;1481;-77
2022/02/07 00:11:34;;;;;;;7.57;3.08;;;0.50;99.90;;;0.30;79.44;96425.03;171174;28;1229;-77
2022/02/07 00:11:40;;;;;;;7.26;3.18;;;0.50;99.90;;;0.25;79.40;96423.81;172584;28;982;-77
2022/02/07 00:11:46;;;;;;;7.45;3.15;;;0.50;99.90;;;0.30;79.24;96426.84;173085;28;1297;-77
2022/02/07 00:11:52;;;;;;;6.72;2.92;;;0.50;99.90;;;0.25;79.08;96415.88;173053;28;1236;-77
2022/02/07 00:11:58;;;;;;;8.00;3.00;;;0.50;99.90;;;0.41;79.34;96442.53;172448;28;1197;-77
2022/02/07 00:12:05;;;;;;;7.20;2.85;;;0.50;99.90;;;0.45;79.60;96446.53;172445;28;1195;-77
2022/02/07 00:12:11;;;;;;;8.70;2.94;;;0.50;99.90;;;0.42;79.44;96452.09;172527;28;1141;-77
2022/02/07 00:12:17;;;;;;;8.82;2.88;;;0.50;99.90;;;0.33;79.33;96437.97;173132;28;1180;-76
2022/02/07 00:12:23;;;;;;;9.18;3.17;;;0.50;99.90;;;0.33;79.08;96439.78;172350;28;1661;-77
2022/02/07 00:12:29;;;;;;;9.07;3.22;;;0.50;99.90;;;0.16;79.54;96424.69;172119;28;1200;-76
2022/02/07 00:12:35;;;;;;;10.48;3.42;;;0.50;99.90;;;0.24;80.05;96432.75;171760;28;1605;-76
2022/02/07 00:12:41;;;;;;;10.00;3.58;;;0.50;99.90;;;0.13;80.08;96412.63;172925;28;1293;-77
2022/02/07 00:12:47;;;;;;;9.95;3.80;;;0.50;99.90;;;0.13;80.18;96425.00;173159;28;1097;-77
2022/02/07 00:12:53;;;;;;;8.73;3.53;;;0.40;99.90;;;0.16;79.95;96430.81;172966;28;1184;-77
2022/02/07 00:12:59;;;;;;;8.10;3.33;;;0.40;99.90;;;0.20;80.61;96426.09;171536;28;1168;-77
2022/02/07 00:13:06;;;;;;;6.55;3.17;;;0.50;99.90;;;0.19;80.51;96425.25;172189;28;959;-77
2022/02/07 00:13:12;;;;;;;5.40;2.90;;;0.50;99.90;;;0.20;80.46;96428.75;172321;28;1439;-76
2022/02/07 00:13:18;;;;;;;5.97;2.88;;;0.50;99.90;;;0.29;80.40;96435.78;172453;28;1321;-77
2022/02/07 00:13:23;;;;;;;6.40;3.10;;;0.50;99.90;;;0.29;80.72;96441.06;171538;28;1216;-77
2022/02/07 00:13:29;;;;;;;5.88;3.17;;;0.50;99.90;;;0.35;80.33;96437.81;172439;28;1173;-77
2022/02/07 00:13:35;;;;;;;7.50;3.13;;;0.50;99.90;;;0.45;80.41;96451.00;174419;28;1317;-76
2022/02/07 00:13:43;;;;;;;7.53;3.20;;;0.50;99.90;;;0.40;80.54;96447.00;172475;28;1161;-77
2022/02/07 00:13:48;;;;;;;7.05;3.15;;;0.50;99.90;;;0.30;80.54;96435.63;172708;28;1333;-77
2022/02/07 00:13:54;;;;;;;7.35;3.17;;;0.50;99.90;;;0.43;80.40;96449.31;171803;28;1074;-77
2022/02/07 00:14:01;;;;;;;8.77;3.35;;;0.50;99.90;;;0.35;80.00;96430.72;173070;28;1217;-77
2022/02/07 00:14:07;;;;;;;8.93;3.53;;;0.50;99.90;;;0.40;79.44;96439.03;171796;28;1409;-77
2022/02/07 00:14:13;;;;;;;8.88;3.50;;;0.50;99.90;;;0.36;79.78;96426.25;170995;28;1445;-77
2022/02/07 00:14:19;;;;;;;10.10;3.65;;;0.50;99.90;;;0.39;79.77;96433.91;171171;28;1230;-77
2022/02/07 00:14:25;;;;;;;9.65;3.53;;;0.50;99.90;;;0.40;79.65;96431.09;171726;28;1229;-77
2022/02/07 00:14:31;;;;;;;8.65;3.33;;;0.50;99.90;;;0.32;80.12;96414.28;172606;28;915;-77
2022/02/07 00:14:38;;;;;;;7.47;3.15;;;0.50;99.90;;;0.37;80.19;96423.44;173882;28;1191;-77
2022/02/07 00:14:44;;;;;;;9.60;3.50;;;0.50;99.90;;;0.40;80.14;96424.97;173005;28;1499;-77
2022/02/07 00:14:50;;;;;;;8.58;3.18;;;0.50;99.90;;;0.36;79.90;96420.97;173849;28;1469;-77
2022/02/07 00:14:56;;;;;;;9.07;3.20;;;0.50;99.90;;;0.45;80.11;96429.81;173848;28;1190;-76
2022/02/07 00:15:04;;;;;;;9.80;3.25;;;0.60;99.90;;;0.41;80.16;96430.09;172408;28;1068;-78
2022/02/07 00:15:10;;;;;;;9.82;3.17;;;0.50;99.90;;;0.42;79.89;96415.88;172446;28;961;-77
2022/02/07 00:15:18;;;;;;;8.95;3.08;;;0.60;99.90;;;0.50;80.01;96443.44;173057;28;1552;-77
2022/02/07 00:15:25;;;;;;;10.09;3.34;;;0.60;99.90;;;0.43;79.92;96436.09;173493;28;1101;-77
2022/02/07 00:15:31;;;;;;;9.67;3.33;;;0.60;99.90;;;0.41;79.98;96424.81;173902;28;859;-77
2022/02/07 00:15:37;;;;;;;9.07;3.30;;;0.50;99.90;;;0.39;79.85;96415.38;175716;28;1286;-77
2022/02/07 00:15:43;;;;;;;9.60;3.43;;;0.60;99.90;;;0.50;80.02;96433.69;173725;28;1556;-77
2022/02/07 00:15:49;;;;;;;9.13;3.30;;;0.50;99.90;;;0.48;79.53;96430.34;172735;28;1219;-77
2022/02/07 00:15:55;;;;;;;10.05;3.35;;;0.60;99.90;;;0.20;79.60;96384.59;173161;28;857;-77
2022/02/07 00:16:01;;;;;;;10.73;3.37;;;0.60;99.90;;;0.49;79.78;96434.66;172584;28;1311;-77
2022/02/07 00:16:07;;;;;;;10.60;3.10;;;0.60;99.90;;;0.37;79.85;96409.38;171881;28;899;-77
2022/02/07 00:16:13;;;;;;;9.43;2.95;;;0.60;99.90;;;0.24;79.77;96380.66;172589;28;1315;-77
2022/02/07 00:16:19;;;;;;;9.68;2.97;;;0.60;99.90;;;0.45;79.88;96425.34;172407;28;1370;-77
2022/02/07 00:16:25;;;;;;;6.83;2.90;;;0.60;99.90;;;0.50;79.62;96428.38;171528;28;1182;-77
2022/02/07 00:16:32;;;;;;;6.47;2.95;;;0.60;99.90;;;0.43;80.04;96425.50;172410;28;1219;-77
2022/02/07 00:16:38;;;;;;;7.70;3.33;;;0.50;99.90;;;0.42;79.33;96418.53;173271;28;871;-77
2022/02/07 00:16:44;;;;;;;8.07;3.50;;;0.60;99.90;;;0.45;79.43;96420.06;173739;28;1407;-77
2022/02/07 00:16:50;;;;;;;8.32;3.58;;;0.60;99.90;;;0.45;79.71;96413.94;172482;28;1490;-77
2022/02/07 00:16:56;;;;;;;8.52;3.67;;;0.60;99.90;;;0.49;79.52;96424.06;171933;28;1224;-77
2022/02/07 00:17:02;;;;;;;9.15;3.70;;;0.60;99.90;;;0.47;79.81;96431.31;172267;28;1252;-77
2022/02/07 00:17:08;;;;;;;8.55;3.53;;;0.60;99.90;;;0.39;79.68;96415.38;171746;28;1717;-77
2022/02/07 00:17:14;;;;;;;9.30;3.33;;;0.50;99.90;;;0.48;79.37;96435.63;173119;28;1303;-77
2022/02/07 00:17:21;;;;;;;9.27;3.28;;;0.60;99.90;;;0.42;79.90;96410.59;172302;28;1192;-77
2022/02/07 00:17:27;;;;;;;9.00;3.03;;;0.60;99.90;;;0.41;79.78;96408.13;172314;28;1573;-77
2022/02/07 00:17:33;;;;;;;8.77;3.00;;;0.60;99.90;;;0.43;79.70;96411.44;173850;28;1373;-77
2022/02/07 00:17:40;;;;;;;8.05;2.95;;;0.60;99.90;;;0.53;79.84;96420.13;172261;28;1462;-77
2022/02/07 00:17:46;;;;;;;7.20;2.97;;;0.60;99.90;;;0.37;80.03;96393.50;174680;28;1731;-77
2022/02/07 00:17:52;;;;;;;7.60;3.17;;;0.60;99.90;;;0.52;79.57;96425.59;172657;28;1506;-77
2022/02/07 00:17:58;;;;;;;8.50;3.20;;;0.60;99.90;;;0.52;80.10;96431.69;171640;28;1315;-77
2022/02/07 00:18:08;;;;;;;8.40;3.10;;;0.60;99.90;;;0.45;79.73;96416.56;172393;28;1048;-77
2022/02/07 00:18:14;;;;;;;8.73;3.03;;;0.60;99.90;;;0.41;79.89;96414.22;173631;28;1369;-77
2022/02/07 00:18:22;;;;;;;7.87;2.90;;;0.60;99.90;;;0.36;80.08;96403.25;173827;28;1309;-77
2022/02/07 00:18:28;;;;;;;7.43;2.93;;;0.60;99.90;;;0.27;79.74;96401.50;172465;28;1489;-77
2022/02/07 00:18:36;;;;;;;7.44;3.20;;;0.60;99.90;;;0.32;79.65;96404.53;173046;28;1494;-77
2022/02/07 00:18:42;;;;;;;7.82;3.50;;;0.60;99.90;;;0.27;79.76;96398.03;172065;28;1354;-76
2022/02/07 00:18:48;;;;;;;8.55;3.55;;;0.50;99.90;;;0.26;80.02;96404.31;172341;28;1489;-76
2022/02/07 00:18:54;;;;;;;8.70;3.65;;;0.50;99.90;;;0.30;80.13;96418.91;172263;28;1218;-77
2022/02/07 00:19:00;;;;;;;8.34;3.72;;;0.50;99.90;;;0.29;79.77;96420.72;172425;28;1379;-76
2022/02/07 00:19:10;;;;;;;8.90;3.72;;;0.50;99.90;;;0.37;80.10;96434.03;172422;28;1210;-76
2022/02/07 00:19:21;;;;;;;10.41;3.67;;;0.50;99.90;;;0.26;80.14;96421.00;172523;28;1572;-77
2022/02/07 00:19:28;;;;;;;10.28;3.73;;;0.50;99.90;;;0.23;79.83;96425.78;173048;28;1367;-76
2022/02/07 00:19:34;;;;;;;11.00;3.77;;;0.40;99.90;;;0.23;80.14;96420.47;173537;28;1388;-76
2022/02/07 00:19:40;;;;;;;9.48;3.72;;;0.40;99.90;;;0.22;80.28;96427.59;173417;28;955;-76
2022/02/07 00:19:46;;;;;;;8.77;3.67;;;0.50;99.90;;;0.25;80.31;96439.72;171991;28;963;-76
2022/02/07 00:19:52;;;;;;;8.50;3.37;;;0.40;99.90;;;0.30;80.31;96432.16;172481;28;1296;-77
2022/02/07 00:19:59;;;;;;;7.97;3.23;;;0.40;99.90;;;0.22;80.34;96421.47;173106;28;1298;-76
2022/02/07 00:20:12;;;;;;;6.96;3.14;;;0.40;99.90;;;0.23;80.48;96423.97;172471;28;1453;-76
2022/02/07 00:20:21;;;;;;;8.16;3.14;;;0.40;99.90;;;0.26;80.59;96430.78;173348;28;1513;-77
2022/02/07 00:20:27;;;;;;;8.20;3.23;;;0.40;99.90;;;0.19;80.36;96419.13;173159;28;1026;-77
2022/02/07 00:20:36;;;;;;;8.80;3.20;;;0.40;99.90;;;0.32;80.74;96435.47;173110;28;1332;-77
2022/02/07 00:20:42;;;;;;;8.17;3.21;;;0.40;99.90;;;0.07;80.78;96388.56;173597;28;1417;-76
2022/02/07 00:20:48;;;;;;;7.03;3.27;;;0.40;99.90;;;0.22;80.68;96417.00;173848;28;1342;-77
2022/02/07 00:20:54;;;;;;;7.87;3.47;;;0.40;99.90;;;0.15;80.65;96396.59;174233;28;1385;-77
2022/02/07 00:21:00;;;;;;;7.97;3.80;;;0.40;99.90;;;0.26;80.59;96412.28;173876;28;1265;-77
2022/02/07 00:21:07;;;;;;;8.82;3.97;;;0.40;99.90;;;0.32;80.59;96422.22;172221;28;1304;-77
2022/02/07 00:21:13;;;;;;;10.37;4.03;;;0.40;99.90;;;0.37;80.15;96425.25;172595;28;844;-77
2022/02/07 00:21:19;;;;;;;13.57;4.10;;;0.40;99.90;;;0.24;80.43;96406.28;172309;28;1503;-77
2022/02/07 00:21:25;;;;;;;13.93;4.03;;;0.40;99.90;;;0.22;79.97;96402.94;172404;28;1327;-77
2022/02/07 00:21:32;;;;;;;13.50;3.80;;;0.40;99.90;;;0.33;79.81;96415.97;171820;28;1084;-77
2022/02/07 00:21:39;;;;;;;12.07;3.50;;;0.50;99.90;;;0.25;79.69;96406.13;171853;28;1397;-77
2022/02/07 00:21:46;;;;;;;11.13;3.55;;;0.40;99.90;;;0.38;79.96;96419.81;171819;28;997;-77
2022/02/07 00:21:52;;;;;;;9.23;3.60;;;0.50;99.90;;;0.28;80.11;96403.19;171772;28;1580;-77
2022/02/07 00:21:59;;;;;;;8.68;3.63;;;0.50;99.90;;;0.32;80.17;96409.00;171963;28;855;-77
2022/02/07 00:22:05;;;;;;;9.20;3.70;;;0.40;99.90;;;0.29;80.25;96402.22;173029;28;1588;-77
2022/02/07 00:22:11;;;;;;;8.45;3.53;;;0.50;99.90;;;0.25;80.31;96392.91;171734;28;1335;-77
2022/02/07 00:22:17;;;;;;;7.53;3.38;;;0.50;99.90;;;0.30;80.18;96405.69;172675;28;1223;-77
2022/02/07 00:22:23;;;;;;;6.97;3.22;;;0.40;99.90;;;0.24;80.55;96393.06;172513;28;1283;-78
2022/02/07 00:22:29;;;;;;;6.50;3.17;;;0.50;99.90;;;0.35;80.34;96414.00;172412;28;1188;-77
2022/02/07 00:22:35;;;;;;;6.80;3.27;;;0.40;99.90;;;0.03;80.10;96350.16;172517;28;1220;-77
2022/02/07 00:22:42;;;;;;;7.20;3.40;;;0.50;99.90;;;0.34;80.24;96399.09;172505;28;1016;-77
2022/02/07 00:22:50;;;;;;;7.80;3.57;;;0.50;99.90;;;0.29;80.17;96391.63;172593;28;1496;-76
2022/02/07 00:22:56;;;;;;;8.87;3.79;;;0.50;99.90;;;0.30;79.87;96389.81;173924;28;1637;-77
2022/02/07 00:23:03;;;;;;;9.50;3.78;;;0.50;99.90;;;0.42;80.28;96421.19;173276;28;1497;-77
2022/02/07 00:23:10;;;;;;;11.07;3.80;;;0.50;99.90;;;0.37;79.98;96407.56;173377;28;1186;-77
2022/02/07 00:23:16;;;;;;;10.35;3.75;;;0.50;99.90;;;0.36;79.92;96408.53;172386;28;1437;-77
2022/02/07 00:23:23;;;;;;;9.76;3.62;;;0.50;99.90;;;0.40;79.52;96417.88;171900;28;1067;-77
2022/02/07 00:23:29;;;;;;;8.43;3.53;;;0.50;99.90;;;0.26;79.64;96385.81;172005;28;966;-77
2022/02/07 00:23:35;;;;;;;7.87;3.60;;;0.40;99.90;;;0.29;79.60;96404.00;171876;28;1040;-77
2022/02/07 00:23:41;;;;;;;7.35;3.70;;;0.40;99.90;;;0.36;79.70;96411.19;172036;28;962;-76
2022/02/07 00:23:47;;;;;;;7.80;3.70;;;0.40;99.90;;;0.37;79.71;96407.56;172153;28;1289;-77
2022/02/07 00:23:53;;;;;;;8.07;3.77;;;0.40;99.90;;;0.34;79.66;96402.59;171997;28;890;-76
2022/02/07 00:23:59;;;;;;;8.63;3.92;;;0.40;99.90;;;0.31;79.76;96394.13;172971;28;1372;-77
2022/02/07 00:24:05;;;;;;;8.80;4.10;;;0.50;99.90;;;0.21;79.71;96373.00;174525;28;1336;-76
2022/02/07 00:24:11;;;;;;;8.77;3.93;;;0.40;99.90;;;0.37;79.92;96398.78;173755;28;1270;-77
2022/02/07 00:24:17;;;;;;;8.30;3.92;;;0.40;99.90;;;0.16;79.63;96366.47;173863;28;1349;-77
2022/02/07 00:24:23;;;;;;;8.00;3.63;;;0.40;99.90;;;0.35;79.58;96401.59;172958;28;1287;-77
2022/02/07 00:24:29;;;;;;;7.82;3.45;;;0.40;99.90;;;0.37;79.49;96402.28;172049;28;994;-76
2022/02/07 00:24:35;;;;;;;8.52;3.53;;;0.40;99.90;;;0.36;79.21;96394.50;172601;28;1410;-77
2022/02/07 00:24:41;;;;;;;8.80;3.70;;;0.40;99.90;;;0.32;79.62;96390.47;173153;28;1333;-77
2022/02/07 00:24:47;;;;;;;9.10;3.80;;;0.40;99.90;;;0.31;79.03;96394.13;172610;28;1235;-76
2022/02/07 00:24:53;;;;;;;10.23;3.95;;;0.40;99.90;;;0.33;79.31;96400.06;172506;28;1245;-77
2022/02/07 00:24:59;;;;;;;9.82;4.03;;;0.50;99.90;;;0.20;79.35;96374.00;172351;28;1354;-77
2022/02/07 00:25:07;;;;;;;8.70;3.75;;;0.40;99.90;;;0.35;79.54;96398.97;171665;28;886;-77
2022/02/07 00:25:15;;;;;;;8.18;3.70;;;0.40;99.90;;;0.31;79.41;96397.56;172604;28;931;-76
2022/02/07 00:25:21;;;;;;;7.88;3.78;;;0.40;99.90;;;0.27;79.35;96390.94;171861;28;1312;-77
2022/02/07 00:25:28;;;;;;;7.35;3.70;;;0.40;99.90;;;0.29;78.92;96390.78;172906;28;1666;-77
2022/02/07 00:25:34;;;;;;;8.13;3.90;;;0.40;99.90;;;0.28;79.65;96386.47;173141;28;1341;-77
2022/02/07 00:25:41;;;;;;;8.10;3.97;;;0.40;99.90;;;0.30;79.39;96395.94;171956;28;1375;-77
2022/02/07 00:25:47;;;;;;;8.17;3.90;;;0.40;99.90;;;0.28;79.47;96389.09;172783;28;1196;-76
2022/02/07 00:25:54;;;;;;;9.23;4.15;;;0.40;99.90;;;0.33;79.36;96400.91;173234;28;1321;-77
2022/02/07 00:26:00;;;;;;;9.02;4.28;;;0.50;99.90;;;0.30;79.83;96393.28;173187;28;1060;-77
2022/02/07 00:26:06;;;;;;;9.60;4.32;;;0.40;99.90;;;0.32;79.71;96395.75;172556;28;1524;-77
2022/02/07 00:26:12;;;;;;;9.55;4.20;;;0.40;99.90;;;0.29;79.78;96390.78;173601;28;1290;-77
2022/02/07 00:26:18;;;;;;;8.90;4.22;;;0.40;99.90;;;0.30;79.76;96384.50;172468;28;1343;-77
2022/02/07 00:26:24;;;;;;;8.23;4.17;;;0.40;99.90;;;0.30;79.97;96382.69;172679;28;1143;-77
2022/02/07 00:26:30;;;;;;;8.00;3.95;;;0.40;99.90;;;0.38;79.99;96400.47;172591;28;1318;-77
2022/02/07 00:26:36;;;;;;;7.10;3.75;;;0.40;99.90;;;0.22;80.20;96372.00;173595;28;1111;-77
2022/02/07 00:26:42;;;;;;;7.22;3.65;;;0.40;99.90;;;0.32;80.23;96383.38;173886;28;1364;-77
2022/02/07 00:26:48;;;;;;;8.85;3.38;;;0.40;99.90;;;0.35;80.48;96390.19;173234;28;1364;-77
2022/02/07 00:26:54;;;;;;;9.07;3.20;;;0.40;99.90;;;0.33;80.06;96384.19;172735;28;1250;-77
2022/02/07 00:26:59;;;;;;;9.82;3.15;;;0.50;99.90;;;0.23;80.25;96371.03;172973;28;1259;-77
2022/02/07 00:27:06;;;;;;;9.57;3.15;;;0.50;99.90;;;0.29;80.44;96383.69;172951;28;1012;-76
2022/02/07 00:27:12;;;;;;;9.57;3.33;;;0.40;99.90;;;0.22;80.63;96363.25;172062;28;825;-77
2022/02/07 00:27:17;;;;;;;7.80;3.35;;;0.40;99.90;;;0.35;80.20;96392.84;171969;28;1394;-77
2022/02/07 00:27:23;;;;;;;6.97;3.35;;;0.50;99.90;;;0.28;80.45;96368.78;173264;28;951;-77
2022/02/07 00:27:29;;;;;;;6.70;3.53;;;0.40;99.90;;;0.33;80.50;96378.91;172602;28;1236;-77
2022/02/07 00:27:36;;;;;;;7.63;3.65;;;0.40;99.90;;;0.34;80.60;96380.56;173187;28;1263;-77
2022/02/07 00:27:42;;;;;;;7.70;3.58;;;0.40;99.90;;;0.20;80.07;96365.22;173029;28;1128;-77
2022/02/07 00:27:48;;;;;;;7.54;3.62;;;0.40;99.90;;;0.34;80.42;96392.00;173473;28;2005;-77
2022/02/07 00:27:54;;;;;;;7.90;3.80;;;0.40;99.90;;;0.35;80.52;96398.97;173210;28;1342;-77
2022/02/07 00:28:01;;;;;;;7.93;3.80;;;0.40;99.90;;;0.17;79.84;96362.88;174621;28;1457;-76
2022/02/07 00:28:07;;;;;;;7.52;3.74;;;0.40;99.90;;;0.28;79.78;96387.31;173986;28;1038;-77
2022/02/07 00:28:13;;;;;;;9.77;3.80;;;0.40;99.90;;;0.19;80.27;96368.84;173001;28;1309;-77
2022/02/07 00:28:20;;;;;;;10.07;3.75;;;0.40;99.90;;;0.27;79.88;96382.16;172559;28;1485;-77
2022/02/07 00:28:26;;;;;;;10.18;3.78;;;0.40;99.90;;;0.39;79.73;96400.31;172812;28;1465;-77
2022/02/07 00:28:32;;;;;;;10.07;3.73;;;0.40;99.90;;;0.29;79.51;96386.31;173306;28;1335;-77
2022/02/07 00:28:38;;;;;;;10.13;3.78;;;0.40;99.90;;;0.32;79.70;96391.31;172896;28;1244;-77
2022/02/07 00:28:43;;;;;;;8.17;3.67;;;0.40;99.90;;;0.37;79.86;96404.09;173263;28;1418;-77
2022/02/07 00:28:51;;;;;;;8.75;3.60;;;0.40;99.90;;;0.32;79.53;96396.59;172564;28;1055;-76
2022/02/07 00:28:57;;;;;;;8.30;3.40;;;0.40;99.90;;;0.31;80.01;96388.81;172528;28;1347;-77
2022/02/07 00:29:03;;;;;;;7.93;3.28;;;0.40;99.90;;;0.37;80.11;96399.63;173095;28;1232;-77
2022/02/07 00:29:09;;;;;;;7.15;3.22;;;0.50;99.90;;;0.33;80.00;96394.78;172982;28;975;-77
2022/02/07 00:29:15;;;;;;;6.85;3.30;;;0.40;99.90;;;0.34;80.19;96399.09;171874;28;1446;-77
2022/02/07 00:29:21;;;;;;;7.10;3.30;;;0.50;99.90;;;0.35;80.10;96400.78;172702;28;1423;-77
2022/02/07 00:29:27;;;;;;;7.15;3.35;;;0.40;99.90;;;0.24;80.00;96385.09;172733;28;1059;-77
2022/02/07 00:29:33;;;;;;;7.32;3.38;;;0.40;99.90;;;0.20;80.37;96375.81;172871;28;2230;-77
2022/02/07 00:29:39;;;;;;;9.07;3.75;;;0.40;99.90;;;0.36;80.09;96403.25;173175;28;1298;-76
2022/02/07 00:29:45;;;;;;;9.38;3.90;;;0.40;99.90;;;0.35;80.40;96400.78;173750;28;1297;-77
2022/02/07 00:29:51;;;;;;;9.60;4.00;;;0.40;99.90;;;0.33;80.39;96405.38;173877;28;1293;-77
2022/02/07 00:29:57;;;;;;;9.75;3.92;;;0.40;99.90;;;0.28;80.60;96392.59;172034;28;1291;-77
2022/02/07 00:30:07;;;;;;;9.73;3.78;;;0.40;99.90;;;0.33;80.27;96389.50;171900;28;1308;-77
2022/02/07 00:30:17;;;;;;;7.27;3.00;;;0.40;99.90;;;0.29;79.90;96381.03;172554;28;1511;-77
2022/02/07 00:30:24;;;;;;;7.24;2.81;;;0.40;99.90;;;0.38;79.87;96400.47;173068;28;1202;-77
2022/02/07 00:30:30;;;;;;;6.76;2.90;;;0.50;99.90;;;0.10;79.43;96351.25;172628;28;1492;-77
2022/02/07 00:30:36;;;;;;;7.38;3.08;;;0.40;99.90;;;0.16;79.60;96356.75;173311;28;851;-77
2022/02/07 00:30:42;;;;;;;7.82;3.20;;;0.50;99.90;;;0.14;79.77;96349.94;172531;28;1605;-77
2022/02/07 00:30:48;;;;;;;7.68;3.42;;;0.40;99.90;;;0.34;79.34;96385.88;172524;28;1454;-77
2022/02/07 00:30:54;;;;;;;8.35;3.63;;;0.50;99.90;;;0.13;79.78;96349.13;174558;28;1768;-77
2022/02/07 00:31:01;;;;;;;8.05;3.72;;;0.40;99.90;;;0.07;79.82;96341.78;174109;28;867;-76
2022/02/07 00:31:07;;;;;;;8.37;3.70;;;0.40;99.90;;;0.30;79.75;96368.63;172312;28;1261;-78